Disclaimer

Please do not use the information listed here in-flight or in-navigation, as they are not provided to us by the airports but are provided by volunteers, so they might be outdated.

Search


Regions


Airport information page

Radio informations:
LE MANS TWR - 125.9 MHz

Airport informations:
Latitude: 47° 56' 55.00" N
Longitude: 000° 12' 06.00" E
Elevation: 194 feet - 59 meters
Operating hours: Remarks
Operating agency: Civil government, landing fees and diplomatic clearance may be required
Timezone: UTC+1(+2DT) - Last Sunday in March to last Sunday in October
Fuel: Jet A1, without icing nhibitor.

100/130 MIL Spec, low lead, aviation gasoline (BLUE)

Runway information:
02/20 - 4658 x 98 feet< - >1420 x 30 meters

Recent METARs:
LFRM 192000Z AUTO 02008KT CAVOK 04/00 Q1008
LFRM 192030Z AUTO 02009KT CAVOK 04/01 Q1007
LFRM 192100Z AUTO 03008KT CAVOK 04/01 Q1007

Airport on the map: